Latest Weather Observations for Newcastle Nobbys

IDN60901

Issued at 12:02 am EDT Saturday 28 February 2015 (issued every 10 minutes, with the page automatically refreshed every 10 minutes)

About weather observations | Map of Sydney area stations | Latest observations for Sydney area | Other Formats
Station Details ID: 061055 Name: NEWCASTLE NOBBYS SIGNAL STATION AWS Lat: -32.92 Lon: 151.80 Height: 33.0 m
Data from the previous 72 hours. | See also: Recent months at Newcastle Nobbys
Date/Time
EDT
Tmp

°C
App
Tmp
°C
Dew
Point
°C
Rel
Hum
%
Delta-T

°C
Wind Press
QNH
hPa
Press
MSL
hPa
Rain
since
9 am
mm
Dir
 
Spd
km/h
Gust
km/h
Spd
kts
Gust
kts
27/11:30pm 22.3 25.0 19.5 84 1.8 NE 4 6 2 3 - - 0.2
27/11:00pm 22.6 25.0 19.6 83 1.9 NNE 6 7 3 4 - - 0.2
27/10:30pm 22.7 24.5 19.5 82 2.0 NE 9 11 5 6 - - 0.2
27/10:00pm 22.6 24.3 19.4 82 2.0 NE 9 13 5 7 - - 0.2
27/09:30pm 22.8 24.7 19.8 83 1.9 NE 9 13 5 7 - - 0.2
27/09:00pm 22.7 24.1 19.5 82 2.0 ENE 11 15 6 8 - - 0.2
27/08:30pm 22.8 23.8 19.4 81 2.2 E 13 15 7 8 - - 0.2
27/08:00pm 22.9 24.0 19.7 82 2.1 E 13 15 7 8 - - 0.2
27/07:30pm 23.0 24.4 20.3 85 1.7 E 13 15 7 8 - - 0.2
27/07:00pm 23.4 24.8 20.3 83 2.0 ESE 13 15 7 8 - - 0.2
27/06:30pm 23.8 24.8 20.3 81 2.3 ESE 15 17 8 9 - - 0.2
27/06:00pm 24.1 25.1 20.2 79 2.5 SE 15 17 8 9 - - 0.2
27/05:30pm 24.5 25.6 20.4 78 2.7 SE 15 17 8 9 - - 0.2
27/05:00pm 24.7 25.9 20.6 78 2.7 SE 15 17 8 9 - - 0.2
27/04:30pm 24.6 25.1 20.1 76 2.9 SE 17 19 9 10 - - 0.2
27/04:00pm 24.7 24.8 20.0 75 3.0 SSE 19 20 10 11 - - 0.2
27/03:30pm 25.1 25.9 19.9 73 3.4 SSE 15 15 8 8 - - 0.2
27/03:00pm 25.1 26.2 20.4 75 3.1 S 15 17 8 9 - - 0.2
27/02:30pm 25.1 27.1 19.9 73 3.4 SSE 9 13 5 7 - - 0.2
27/02:00pm 25.1 27.5 20.8 77 2.8 SSE 9 11 5 6 - - 0.2
27/01:30pm 25.3 27.8 21.0 77 2.8 SE 9 9 5 5 - - 0.2
27/01:00pm 25.4 27.8 20.9 76 3.0 ESE 9 11 5 6 - - 0.2
27/12:30pm 25.0 27.3 20.7 77 2.8 SSE 9 9 5 5 - - 0.2
27/12:00pm 24.7 26.7 20.8 79 2.6 S 11 15 6 8 - - 0.2
27/11:30am 24.8 27.0 20.5 77 2.8 S 9 9 5 5 - - 0.2
27/11:00am 24.1 26.0 20.6 81 2.3 S 11 15 6 8 - - 0.0
27/10:30am 24.2 26.3 20.9 82 2.2 S 11 15 6 8 - - 0.0
27/10:00am 24.0 26.4 20.9 83 2.0 S 9 9 5 5 - - 0.0
27/09:30am 23.4 26.5 21.5 89 1.3 W 7 9 4 5 - - 0.0
27/09:00am 23.2 26.0 21.6 91 1.1 WSW 9 15 5 8 - - 4.8
27/08:30am 21.8 23.6 20.4 92 0.9 S 11 17 6 9 - - 4.0
27/08:00am 21.7 24.5 20.5 93 0.8 NNW 6 13 3 7 - - 1.2
27/07:30am 21.5 23.3 20.3 93 0.8 SW 11 17 6 9 - - 0.0
27/07:00am 21.3 23.0 20.1 93 0.8 SW 11 20 6 11 - - 0.0
27/06:30am 21.2 23.3 20.2 94 0.6 SW 9 19 5 10 - - 0.0
27/06:00am 21.1 22.0 20.1 94 0.6 SW 15 24 8 13 - - 0.0
27/05:30am 21.1 22.4 20.1 94 0.6 SW 13 20 7 11 - - 0.0
27/05:00am 21.1 22.3 19.9 93 0.8 SW 13 20 7 11 - - 0.0
27/04:30am 21.3 21.8 20.1 93 0.8 SSW 17 22 9 12 - - 0.0
27/04:00am 21.3 22.2 20.1 93 0.8 SSW 15 20 8 11 - - 0.0
27/03:00am 21.3 21.5 20.1 93 0.8 SSW 19 24 10 13 - - 0.0
27/02:30am 21.6 22.3 20.4 93 0.8 SSW 17 20 9 11 - - 0.0
27/02:00am 21.8 22.6 20.6 93 0.8 SSW 17 22 9 12 - - 0.0
27/01:30am 21.9 23.5 20.7 93 0.8 SSW 13 17 7 9 - - 0.0
27/01:00am 21.9 24.2 20.7 93 0.8 SSW 9 13 5 7 - - 0.0
27/12:30am 21.9 24.5 20.5 92 0.9 SSW 7 13 4 7 - - 0.0
27/12:00am 22.0 24.9 20.6 92 0.9 SSW 6 13 3 7 - - 0.0
 
Date/Time
EDT
Tmp

°C
App
Tmp
°C
Dew
Point
°C
Rel
Hum
%
Delta-T

°C
Wind Press
QNH
hPa
Press
MSL
hPa
Rain
since
9 am
mm
Dir
 
Spd
km/h
Gust
km/h
Spd
kts
Gust
kts
26/11:30pm 22.1 24.8 20.6 91 1.0 S 7 17 4 9 - - 0.0
26/11:00pm 22.4 24.7 20.7 90 1.1 SSW 9 17 5 9 - - 0.0
26/10:30pm 22.5 25.7 20.6 89 1.2 S 4 6 2 3 - - 0.0
26/10:00pm 22.7 25.9 20.6 88 1.4 S 4 6 2 3 - - 0.0
26/09:30pm 22.9 26.6 20.8 88 1.4 SSW 2 4 1 2 - - 0.0
26/09:00pm 22.9 25.8 20.6 87 1.5 ESE 6 9 3 5 - - 0.0
26/08:30pm 22.8 24.3 20.5 87 1.5 ESE 13 17 7 9 - - 0.0
26/08:00pm 22.6 23.6 20.3 87 1.5 E 15 17 8 9 - - 0.0
26/07:30pm 22.7 23.8 20.4 87 1.5 E 15 17 8 9 - - 0.0
26/07:00pm 22.6 24.2 19.9 85 1.7 E 11 15 6 8 - - 0.0
26/06:30pm 22.4 23.3 20.1 87 1.5 ENE 15 20 8 11 - - 0.0
26/06:00pm 22.5 22.7 20.2 87 1.5 E 19 22 10 12 - - 0.0
26/05:30pm 23.0 23.2 20.1 84 1.9 ESE 19 20 10 11 - - 0.0
26/05:00pm 23.5 24.5 20.2 82 2.1 SE 15 17 8 9 - - 0.0
26/04:30pm 23.3 23.8 20.1 82 2.1 SE 17 17 9 9 - - 0.0
26/04:00pm 23.1 23.9 19.9 82 2.1 SSE 15 15 8 8 - - 0.0
26/03:30pm 23.3 24.8 19.7 80 2.3 SSE 11 13 6 7 - - 0.0
26/03:00pm 24.0 25.6 19.9 78 2.6 SE 11 13 6 7 - - 0.0
26/02:30pm 24.2 25.5 20.1 78 2.7 SSE 13 15 7 8 - - 0.0
26/02:00pm 23.9 25.1 20.0 79 2.5 SSE 13 15 7 8 - - 0.0
26/01:30pm 23.9 25.4 20.6 82 2.2 SSE 13 15 7 8 - - 0.0
26/01:00pm 22.6 23.0 19.8 84 1.8 SSE 17 19 9 10 - - 0.0
26/12:30pm 22.7 23.5 19.9 84 1.8 SSE 15 17 8 9 - - 0.0
26/12:00pm 23.1 23.5 19.9 82 2.1 S 17 19 9 10 - - 0.0
26/11:30am 23.4 23.4 19.8 80 2.3 S 19 20 10 11 - - 0.0
26/11:00am 23.3 23.7 19.9 81 2.2 S 17 19 9 10 - - 0.0
26/10:30am 22.8 23.2 19.8 83 1.9 SSW 17 19 9 10 - - 0.0
26/10:00am 22.1 22.6 19.3 84 1.8 S 15 19 8 10 - - 0.0
26/09:30am 22.4 24.1 19.4 83 1.9 SSW 9 13 5 7 - - 0.0
26/09:00am 21.7 23.5 19.6 88 1.3 SSW 9 13 5 7 - - 2.8
26/08:30am 21.3 23.6 19.9 92 0.9 W 7 11 4 6 - - 2.6
26/08:00am 20.7 22.0 19.4 92 0.8 W 11 13 6 7 - - 2.6
26/07:30am 20.7 22.1 19.5 93 0.8 W 11 13 6 7 - - 2.6
26/07:00am 20.6 22.3 19.4 93 0.8 SW 9 11 5 6 - - 2.6
26/06:30am 20.8 23.0 19.6 93 0.8 WSW 7 11 4 6 - - 2.6
26/06:00am 21.1 23.5 19.7 92 0.9 WSW 6 11 3 6 - - 2.6
26/05:30am 21.5 24.5 20.1 92 0.9 S 4 7 2 4 - - 2.6
26/05:00am 21.5 22.8 20.1 92 0.9 SSE 13 17 7 9 - - 2.6
26/04:30am 21.5 22.8 20.1 92 0.9 SE 13 15 7 8 - - 2.6
26/04:00am 21.6 22.6 20.2 92 0.9 SE 15 17 8 9 - - 2.6
26/03:30am 21.5 22.4 20.0 91 1.0 SE 15 17 8 9 - - 2.6
26/03:00am 21.6 22.5 20.1 91 1.0 SE 15 19 8 10 - - 2.6
26/02:30am 21.6 22.6 20.2 92 0.9 SE 15 17 8 9 - - 2.6
26/02:00am 21.8 23.6 20.4 92 0.9 SSE 11 13 6 7 - - 2.6
26/01:30am 21.8 23.6 20.3 91 1.0 SSW 11 15 6 8 - - 2.6
26/01:00am 21.5 24.1 20.0 91 1.0 WSW 6 7 3 4 - - 2.6
26/12:30am 21.6 24.5 19.9 90 1.1 SW 4 6 2 3 - - 2.6
26/12:00am 21.5 24.4 19.8 90 1.1 S 4 6 2 3 - - 2.6
 
Date/Time
EDT
Tmp

°C
App
Tmp
°C
Dew
Point
°C
Rel
Hum
%
Delta-T

°C
Wind Press
QNH
hPa
Press
MSL
hPa
Rain
since
9 am
mm
Dir
 
Spd
km/h
Gust
km/h
Spd
kts
Gust
kts
25/11:30pm 21.6 23.6 19.9 90 1.1 SE 9 13 5 7 - - 2.6
25/11:00pm 21.1 21.6 19.2 89 1.2 SE 15 20 8 11 - - 2.4
25/10:30pm 22.0 23.0 20.3 90 1.1 SE 15 19 8 10 - - 2.4
25/10:00pm 21.7 21.6 19.6 88 1.3 SE 19 22 10 12 - - 2.4
25/09:30pm 21.9 22.5 20.2 90 1.1 SSE 17 20 9 11 - - 2.4
25/09:00pm 21.8 23.5 20.1 90 1.1 S 11 13 6 7 - - 2.4
25/08:30pm 21.6 22.8 19.9 90 1.1 S 13 17 7 9 - - 2.4
25/08:00pm 21.8 22.6 19.9 89 1.2 S 15 19 8 10 - - 2.4
25/07:30pm 22.0 23.4 20.3 90 1.1 S 13 17 7 9 - - 2.4
25/07:00pm 21.7 22.5 19.8 89 1.2 SSE 15 17 8 9 - - 2.4
25/06:30pm 21.6 20.7 19.9 90 1.1 SSE 24 26 13 14 - - 2.4
25/06:00pm 22.0 20.9 20.3 90 1.1 SE 26 28 14 15 - - 2.2
25/05:30pm 21.9 20.1 19.6 87 1.5 SE 28 33 15 18 - - 1.0
25/05:00pm 22.9 22.0 19.9 83 1.9 SSE 24 32 13 17 - - 0.0
25/04:30pm 23.7 24.9 20.0 80 2.4 SSE 13 15 7 8 - - 0.0
25/04:00pm 24.4 26.2 20.3 78 2.7 SSE 11 13 6 7 - - 0.0
25/03:30pm 24.2 25.0 20.7 81 2.3 SSE 17 20 9 11 - - 0.0
25/03:00pm 24.3 25.8 20.6 80 2.4 SE 13 15 7 8 - - 0.0
25/02:30pm 24.2 26.2 20.7 81 2.3 SE 11 15 6 8 - - 0.0
25/02:00pm 24.1 25.6 20.6 81 2.3 S 13 15 7 8 - - 0.0
25/01:30pm 24.3 25.6 20.8 81 2.3 S 15 19 8 10 - - 0.0
25/01:00pm 23.4 24.4 20.2 82 2.1 S 15 19 8 10 - - 0.0
25/12:30pm 22.6 22.3 19.6 83 1.9 SSW 20 26 11 14 - - 0.0
25/12:00pm 22.6 22.1 19.2 81 2.2 SSW 20 28 11 15 - - 0.0
25/11:30am 23.2 22.7 19.2 78 2.5 SSW 20 28 11 15 - - 0.0
25/11:00am 22.9 22.5 18.9 78 2.5 SSW 19 24 10 13 - - 0.0
25/10:30am 22.6 22.2 18.8 79 2.4 SSW 19 22 10 12 - - 0.0
25/10:00am 22.1 21.0 18.7 81 2.1 SSW 22 28 12 15 - - 0.0
25/09:30am 21.9 21.2 18.7 82 2.0 SSW 20 26 11 14 - - 0.0
25/09:00am 21.6 20.9 18.6 83 1.9 SSW 20 28 11 15 - - 3.0
25/08:30am 21.1 20.9 18.5 85 1.6 SSW 17 24 9 13 - - 3.0
25/08:00am 20.9 21.2 18.8 88 1.3 SW 15 20 8 11 - - 3.0
25/07:30am 20.4 20.5 19.1 92 0.8 SSW 17 24 9 13 - - 3.0
25/07:00am 20.2 19.8 19.0 93 0.8 SSW 19 26 10 14 - - 3.0
25/06:30am 20.0 19.9 18.8 93 0.8 SW 17 28 9 15 - - 3.0
25/06:00am 20.2 20.7 19.2 94 0.6 SW 15 26 8 14 - - 3.0
25/05:30am 20.1 20.5 19.1 94 0.6 SW 15 24 8 13 - - 3.0
25/05:00am 20.2 19.9 19.2 94 0.6 SW 19 26 10 14 - - 3.0
25/04:30am 20.4 20.1 19.2 93 0.8 SW 19 24 10 13 - - 3.0
25/04:00am 20.7 20.5 19.4 92 0.8 SW 19 30 10 16 - - 2.8
25/03:30am 20.6 19.3 19.1 91 0.9 SSW 24 33 13 18 - - 2.4
25/03:00am 20.6 19.8 19.3 92 0.8 SSW 22 32 12 17 - - 2.4
25/02:30am 20.5 20.1 19.3 93 0.8 SSW 20 30 11 16 - - 2.4
25/02:00am 20.8 19.9 19.8 94 0.6 SSW 24 35 13 19 - - 2.4
25/01:30am 21.0 20.5 20.0 94 0.6 SSW 22 33 12 18 - - 2.0
25/01:00am 21.2 21.2 20.2 94 0.6 SSW 20 30 11 16 - - 2.0
25/12:30am 21.3 21.4 20.3 94 0.6 SSW 20 26 11 14 - - 2.0

Latest Capital City Observations: Canberra | Sydney | Melbourne | Brisbane | Adelaide | Perth | Hobart | Darwin

Other Formats:

Comma delimited format used in spreadsheet applications
http://www.bom.gov.au/fwo/IDN60901/IDN60901.94774.axf

JavaScript Object Notation format (JSON) in row-major order
http://www.bom.gov.au/fwo/IDN60901/IDN60901.94774.json